createdAt,value
2019-05-28T00:00:58.284Z,75.30
2019-05-28T00:03:27.706Z,75.30
2019-05-28T00:05:57.188Z,75.30
2019-05-28T00:08:26.709Z,76.00
2019-05-28T00:10:56.220Z,75.30
2019-05-28T00:13:25.732Z,75.30
2019-05-28T00:15:55.167Z,75.30
2019-05-28T00:18:24.561Z,75.30
2019-05-28T00:20:54.074Z,75.40
2019-05-28T00:23:23.542Z,75.40
2019-05-28T00:25:53.001Z,75.40
2019-05-28T00:28:22.392Z,75.50
2019-05-28T00:30:51.811Z,75.50
2019-05-28T00:33:21.203Z,75.50
2019-05-28T00:35:50.666Z,75.60
2019-05-28T00:38:20.167Z,75.60
2019-05-28T00:40:49.669Z,75.60
2019-05-28T00:43:19.125Z,76.30
2019-05-28T00:45:48.513Z,75.70
2019-05-28T00:48:17.987Z,75.70
2019-05-28T00:50:47.467Z,75.70
2019-05-28T00:53:16.861Z,75.70
2019-05-28T00:55:46.713Z,75.70
2019-05-28T00:58:16.552Z,75.70
2019-05-28T01:00:48.162Z,75.50
2019-05-28T01:03:17.673Z,75.60
2019-05-28T01:05:47.580Z,75.60
2019-05-28T01:08:16.981Z,75.60
2019-05-28T01:10:46.384Z,75.60
2019-05-28T01:13:15.867Z,75.70
2019-05-28T01:15:45.344Z,75.70
2019-05-28T01:18:14.777Z,75.70
2019-05-28T01:20:44.165Z,75.80
2019-05-28T01:23:13.568Z,75.80
2019-05-28T01:25:43.317Z,75.80
2019-05-28T01:28:12.833Z,75.80
2019-05-28T01:30:54.878Z,75.80
2019-05-28T01:33:13.418Z,75.80
2019-05-28T01:35:42.916Z,75.80
2019-05-28T01:38:12.320Z,76.60
2019-05-28T01:40:41.735Z,75.80
2019-05-28T01:43:11.198Z,75.80
2019-05-28T01:45:40.727Z,75.90
2019-05-28T01:48:10.156Z,75.80
2019-05-28T01:50:39.610Z,75.80
2019-05-28T01:53:09.013Z,75.80
2019-05-28T01:55:38.388Z,76.60
2019-05-28T01:58:07.800Z,75.90
2019-05-28T02:00:37.185Z,75.90
2019-05-28T02:03:06.665Z,75.90
2019-05-28T02:05:36.125Z,75.90
2019-05-28T02:08:05.530Z,76.00
2019-05-28T02:10:34.997Z,76.80
2019-05-28T02:13:04.566Z,75.90
2019-05-28T02:15:34.018Z,75.90
2019-05-28T02:18:03.491Z,75.90
2019-05-28T02:20:32.909Z,75.90
2019-05-28T02:23:02.403Z,75.90
2019-05-28T02:25:31.852Z,75.90
2019-05-28T02:28:01.277Z,75.90
2019-05-28T02:30:30.685Z,75.80
2019-05-28T02:33:00.152Z,75.90
2019-05-28T02:35:29.540Z,75.80
2019-05-28T02:37:59.013Z,75.80
2019-05-28T02:40:28.402Z,75.80
2019-05-28T02:42:57.870Z,75.80
2019-05-28T02:45:27.776Z,75.90
2019-05-28T02:47:57.409Z,75.90
2019-05-28T02:51:01.254Z,76.00
2019-05-28T02:53:31.421Z,76.10
2019-05-28T02:56:01.032Z,76.10
2019-05-28T02:58:33.605Z,76.10
2019-05-28T03:01:04.572Z,76.00
2019-05-28T03:03:34.051Z,76.00
2019-05-28T03:06:05.029Z,76.10
2019-05-28T03:08:34.498Z,76.10
2019-05-28T03:11:04.691Z,76.30
2019-05-28T03:13:34.512Z,76.30
2019-05-28T03:16:06.670Z,76.30
2019-05-28T03:18:39.365Z,76.30
2019-05-28T03:21:09.824Z,76.30
2019-05-28T03:23:40.793Z,76.30
2019-05-28T03:26:10.231Z,76.30
2019-05-28T03:28:39.698Z,76.40
2019-05-28T03:31:09.170Z,76.40
2019-05-28T03:33:38.658Z,76.40
2019-05-28T03:36:11.050Z,76.40
2019-05-28T03:38:40.706Z,76.40
2019-05-28T03:41:10.112Z,76.50
2019-05-28T03:43:39.584Z,76.50
2019-05-28T03:46:08.971Z,76.40
2019-05-28T03:48:38.442Z,76.40
2019-05-28T03:51:07.893Z,76.40
2019-05-28T03:53:37.293Z,76.40
2019-05-28T03:56:06.755Z,76.40
2019-05-28T03:58:36.236Z,76.40
2019-05-28T04:01:05.815Z,76.40
2019-05-28T04:03:35.301Z,76.40
2019-05-28T04:06:04.896Z,76.40
2019-05-28T04:08:34.344Z,76.30
2019-05-28T04:11:03.841Z,76.30
2019-05-28T04:13:33.319Z,76.30
2019-05-28T04:16:02.822Z,77.10
2019-05-28T04:18:32.279Z,76.30
2019-05-28T04:21:01.766Z,76.40
2019-05-28T04:23:31.148Z,76.40
2019-05-28T04:26:00.547Z,76.30
2019-05-28T04:28:30.008Z,76.30
2019-05-28T04:30:59.484Z,76.30
2019-05-28T04:33:28.928Z,76.40
2019-05-28T04:35:58.307Z,76.40
2019-05-28T04:38:27.853Z,77.10
2019-05-28T04:40:57.312Z,76.40
2019-05-28T04:43:26.730Z,76.50
2019-05-28T04:45:56.120Z,76.50
2019-05-28T04:48:25.543Z,76.50
2019-05-28T04:50:55.024Z,76.50
2019-05-28T04:53:24.552Z,76.50
2019-05-28T04:55:54.031Z,76.60
2019-05-28T04:58:23.528Z,76.60
2019-05-28T05:00:52.945Z,76.50
2019-05-28T05:03:22.400Z,76.50
2019-05-28T05:05:51.817Z,76.60
2019-05-28T05:08:21.268Z,76.60
2019-05-28T05:10:50.761Z,76.70
2019-05-28T05:13:20.225Z,76.80
2019-05-28T05:15:49.673Z,76.80
2019-05-28T05:18:19.140Z,76.70
2019-05-28T05:20:48.624Z,76.80
2019-05-28T05:23:18.096Z,76.80
2019-05-28T05:25:47.512Z,76.80
2019-05-28T05:28:16.998Z,76.80
2019-05-28T05:30:46.492Z,76.70
2019-05-28T05:33:20.381Z,76.70
2019-05-28T05:35:47.093Z,76.60
2019-05-28T05:38:16.505Z,76.80
2019-05-28T05:40:45.913Z,76.60
2019-05-28T05:43:15.417Z,76.70
2019-05-28T05:45:44.927Z,76.70
2019-05-28T05:48:14.333Z,76.50
2019-05-28T05:50:45.382Z,76.40
2019-05-28T05:53:14.998Z,76.40
2019-05-28T05:55:44.488Z,76.30
2019-05-28T05:58:13.955Z,76.10
2019-05-28T06:00:43.469Z,76.00
2019-05-28T06:03:12.874Z,76.00
2019-05-28T06:05:42.333Z,75.90
2019-05-28T06:08:11.941Z,75.50
2019-05-28T06:10:41.418Z,75.40
2019-05-28T06:13:10.904Z,75.30
2019-05-28T06:15:40.381Z,75.10
2019-05-28T06:18:09.949Z,75.00
2019-05-28T06:20:39.478Z,75.00
2019-05-28T06:23:09.026Z,75.10
2019-05-28T06:25:38.446Z,74.80
2019-05-28T06:28:07.896Z,74.70
2019-05-28T06:30:37.285Z,74.50
2019-05-28T06:33:06.736Z,74.50
2019-05-28T06:35:36.181Z,74.40
2019-05-28T06:38:05.761Z,74.30
2019-05-28T06:40:35.228Z,74.30
2019-05-28T06:43:04.777Z,74.20
2019-05-28T06:45:34.236Z,74.20
2019-05-28T06:48:03.813Z,74.20
2019-05-28T06:50:33.209Z,73.90
2019-05-28T06:53:02.733Z,73.80
2019-05-28T06:55:32.231Z,73.90
2019-05-28T06:58:01.662Z,73.70
2019-05-28T07:00:31.138Z,73.50
2019-05-28T07:03:00.615Z,73.00
2019-05-28T07:05:30.100Z,72.60
2019-05-28T07:07:59.551Z,72.50
2019-05-28T07:10:29.096Z,72.30
2019-05-28T07:12:58.531Z,72.40
2019-05-28T07:15:28.004Z,72.30
2019-05-28T07:17:59.745Z,71.90
2019-05-28T07:20:28.784Z,71.60
2019-05-28T07:22:58.225Z,71.60
2019-05-28T07:25:27.640Z,71.20
2019-05-28T07:28:10.215Z,70.70
2019-05-28T07:30:28.240Z,70.30
2019-05-28T07:32:57.784Z,69.90
2019-05-28T07:35:27.168Z,69.60
2019-05-28T07:37:56.585Z,69.20
2019-05-28T07:40:31.491Z,68.90
2019-05-28T07:42:57.089Z,68.80
2019-05-28T07:45:26.496Z,68.20
2019-05-28T07:47:56.049Z,67.90
2019-05-28T07:50:25.461Z,67.70
2019-05-28T07:52:54.917Z,67.80
2019-05-28T07:55:24.389Z,67.60
2019-05-28T07:57:53.853Z,67.50
2019-05-28T08:00:36.554Z,67.30
2019-05-28T08:03:06.485Z,67.00
2019-05-28T08:05:36.207Z,66.90
2019-05-28T08:08:07.033Z,66.50
2019-05-28T08:10:36.526Z,66.90
2019-05-28T08:13:06.574Z,66.00
2019-05-28T08:15:36.123Z,66.20
2019-05-28T08:18:05.940Z,66.20
2019-05-28T08:20:35.536Z,66.10
2019-05-28T08:23:05.244Z,65.90
2019-05-28T08:25:46.652Z,65.70
2019-05-28T08:28:19.267Z,65.70
2019-05-28T08:30:37.705Z,65.40
2019-05-28T08:33:07.184Z,65.40
2019-05-28T08:35:36.649Z,65.50
2019-05-28T08:38:06.134Z,65.60
2019-05-28T08:40:35.601Z,65.40
2019-05-28T08:43:05.039Z,65.10
2019-05-28T08:45:34.516Z,64.80
2019-05-28T08:48:04.046Z,64.40
2019-05-28T08:50:35.156Z,64.40
2019-05-28T08:53:04.722Z,64.20
2019-05-28T08:55:34.199Z,64.40
2019-05-28T08:58:03.927Z,64.60
2019-05-28T09:00:38.681Z,64.50
2019-05-28T09:03:08.352Z,64.10
2019-05-28T09:05:37.820Z,63.90
2019-05-28T09:08:07.813Z,63.90
2019-05-28T09:10:37.224Z,64.00
2019-05-28T09:13:06.695Z,64.30
2019-05-28T09:15:36.272Z,64.30
2019-05-28T09:18:06.263Z,64.60
2019-05-28T09:20:36.010Z,64.50
2019-05-28T09:23:05.523Z,64.40
2019-05-28T09:25:35.008Z,64.30
2019-05-28T09:28:04.457Z,64.50
2019-05-28T09:30:33.937Z,64.70
2019-05-28T09:33:03.451Z,64.40
2019-05-28T09:35:44.147Z,63.90
2019-05-28T09:38:04.075Z,63.60
2019-05-28T09:40:49.385Z,63.40
2019-05-28T09:43:04.684Z,63.40
2019-05-28T09:45:34.165Z,63.60
2019-05-28T09:48:03.582Z,63.90
2019-05-28T09:50:33.065Z,63.90
2019-05-28T09:53:02.809Z,64.10
2019-05-28T09:55:32.561Z,64.20
2019-05-28T09:58:02.036Z,64.10
2019-05-28T10:00:33.566Z,63.70
2019-05-28T10:03:03.033Z,63.20
2019-05-28T10:05:32.492Z,63.00
2019-05-28T10:08:01.892Z,62.90
2019-05-28T10:10:31.400Z,62.40
2019-05-28T10:13:00.893Z,62.20
2019-05-28T10:15:30.626Z,62.20
2019-05-28T10:18:00.088Z,61.90
2019-05-28T10:20:30.283Z,61.90
2019-05-28T10:22:59.777Z,61.80
2019-05-28T10:25:29.261Z,61.50
2019-05-28T10:28:01.362Z,61.20
2019-05-28T10:30:29.789Z,61.20
2019-05-28T10:32:59.197Z,61.20
2019-05-28T10:35:28.781Z,61.30
2019-05-28T10:37:58.208Z,61.10
2019-05-28T10:40:27.776Z,61.00
2019-05-28T10:42:57.177Z,61.10
2019-05-28T10:45:26.973Z,61.20
2019-05-28T10:47:56.458Z,61.20
2019-05-28T10:50:26.081Z,61.10
2019-05-28T10:52:55.547Z,61.10
2019-05-28T10:55:25.052Z,61.20
2019-05-28T10:57:54.465Z,61.30
2019-05-28T11:00:25.333Z,61.50
2019-05-28T11:02:54.816Z,61.50
2019-05-28T11:05:24.897Z,61.30
2019-05-28T11:07:54.312Z,61.30
2019-05-28T11:10:24.956Z,61.20
2019-05-28T11:12:54.570Z,61.10
2019-05-28T11:15:24.758Z,61.00
2019-05-28T11:17:54.338Z,60.80
2019-05-28T11:20:24.326Z,60.80
2019-05-28T11:22:54.038Z,60.70
2019-05-28T11:25:23.698Z,60.30
2019-05-28T11:27:53.211Z,60.10
2019-05-28T11:30:24.474Z,59.90
2019-05-28T11:32:53.863Z,60.10
2019-05-28T11:35:23.646Z,60.50
2019-05-28T11:37:53.144Z,60.40
2019-05-28T11:40:22.950Z,60.70
2019-05-28T11:42:52.336Z,60.30
2019-05-28T11:45:22.224Z,60.00
2019-05-28T11:47:51.653Z,59.90
2019-05-28T11:50:21.293Z,59.80
2019-05-28T11:52:50.810Z,59.90
2019-05-28T11:55:20.779Z,59.90
2019-05-28T11:57:50.249Z,60.00
2019-05-28T12:00:20.334Z,59.80
2019-05-28T12:02:49.760Z,59.30
2019-05-28T12:05:20.157Z,59.10
2019-05-28T12:07:51.842Z,59.20
2019-05-28T12:10:21.121Z,59.40
2019-05-28T12:12:50.545Z,59.60
2019-05-28T12:15:20.624Z,59.60
2019-05-28T12:17:50.184Z,59.40
2019-05-28T12:20:20.905Z,59.20
2019-05-28T12:23:09.176Z,58.70
2019-05-28T12:25:23.044Z,58.50
2019-05-28T12:27:52.444Z,58.60
2019-05-28T12:30:22.493Z,58.60
2019-05-28T12:32:51.904Z,58.10
2019-05-28T12:35:28.690Z,57.70
2019-05-28T12:37:52.746Z,57.40
2019-05-28T12:40:22.665Z,57.20
2019-05-28T12:42:52.129Z,57.00
2019-05-28T12:45:35.113Z,57.20
2019-05-28T12:48:10.290Z,57.50
2019-05-28T12:50:24.786Z,57.20
2019-05-28T12:52:54.266Z,57.20
2019-05-28T12:55:24.547Z,57.00
2019-05-28T12:57:54.225Z,57.00
2019-05-28T13:00:25.777Z,56.90
2019-05-28T13:02:55.265Z,57.10
2019-05-28T13:05:27.765Z,57.50
2019-05-28T13:08:08.533Z,57.80
2019-05-28T13:10:28.724Z,57.60
2019-05-28T13:12:59.153Z,57.50
2019-05-28T13:15:28.625Z,57.50
2019-05-28T13:17:58.190Z,57.40
2019-05-28T13:20:27.681Z,57.60
2019-05-28T13:22:57.177Z,57.60
2019-05-28T13:25:26.884Z,57.80
2019-05-28T13:27:56.281Z,57.90
2019-05-28T13:30:25.788Z,58.20
2019-05-28T13:32:55.405Z,58.50
2019-05-28T13:35:25.340Z,58.70
2019-05-28T13:37:54.810Z,58.80
2019-05-28T13:40:24.576Z,58.70
2019-05-28T13:42:54.027Z,59.00
2019-05-28T13:45:23.542Z,59.10
2019-05-28T13:47:52.981Z,59.20
2019-05-28T13:50:22.847Z,59.30
2019-05-28T13:52:52.352Z,59.50
2019-05-28T13:55:22.117Z,59.40
2019-05-28T13:57:51.595Z,59.10
2019-05-28T14:00:21.878Z,59.20
2019-05-28T14:02:51.394Z,59.30
2019-05-28T14:05:20.946Z,59.40
2019-05-28T14:07:50.398Z,59.30
2019-05-28T14:10:21.445Z,59.60
2019-05-28T14:12:51.007Z,59.40
2019-05-28T14:15:21.837Z,59.20
2019-05-28T14:17:51.517Z,58.90
2019-05-28T14:20:21.202Z,59.00
2019-05-28T14:22:50.678Z,59.00
2019-05-28T14:25:20.177Z,58.90
2019-05-28T14:27:49.659Z,58.70
2019-05-28T14:30:19.922Z,58.60
2019-05-28T14:32:49.417Z,58.60
2019-05-28T14:35:18.876Z,58.70
2019-05-28T14:37:48.334Z,58.80
2019-05-28T14:40:18.381Z,58.90
2019-05-28T14:42:47.797Z,58.90
2019-05-28T14:45:18.121Z,58.90
2019-05-28T14:47:47.593Z,59.00
2019-05-28T14:50:17.361Z,58.80
2019-05-28T14:52:46.839Z,59.00
2019-05-28T14:55:16.300Z,59.30
2019-05-28T14:57:45.731Z,58.80
2019-05-28T15:00:15.825Z,58.60
2019-05-28T15:02:45.325Z,58.60
2019-05-28T15:05:15.032Z,58.70
2019-05-28T15:07:44.509Z,58.90
2019-05-28T15:10:14.482Z,59.00
2019-05-28T15:12:44.821Z,59.00
2019-05-28T15:15:33.936Z,59.00
2019-05-28T15:17:48.390Z,59.00
2019-05-28T15:20:18.260Z,59.10
2019-05-28T15:22:47.778Z,59.30
2019-05-28T15:25:17.267Z,59.20
2019-05-28T15:27:46.751Z,59.20
2019-05-28T15:30:16.711Z,59.20
2019-05-28T15:32:46.104Z,59.30
2019-05-28T15:35:15.966Z,59.20
2019-05-28T15:37:45.473Z,58.90
2019-05-28T15:40:15.448Z,59.00
2019-05-28T15:42:45.106Z,58.60
2019-05-28T15:45:16.231Z,58.00
2019-05-28T15:47:45.841Z,57.70
2019-05-28T15:50:16.094Z,57.50
2019-05-28T15:52:45.488Z,57.10
2019-05-28T15:55:15.223Z,57.00
2019-05-28T15:57:44.676Z,57.10
2019-05-28T16:00:18.082Z,57.40
2019-05-28T16:02:47.689Z,57.70
2019-05-28T16:05:17.169Z,58.10
2019-05-28T16:07:46.664Z,58.60
2019-05-28T16:10:17.472Z,59.00
2019-05-28T16:12:46.945Z,59.40
2019-05-28T16:15:16.525Z,59.80
2019-05-28T16:17:46.064Z,60.30
2019-05-28T16:20:15.821Z,60.90
2019-05-28T16:22:45.320Z,61.40
2019-05-28T16:25:15.402Z,62.00
2019-05-28T16:27:44.856Z,62.60
2019-05-28T16:30:15.839Z,62.90
2019-05-28T16:32:45.329Z,63.40
2019-05-28T16:35:15.026Z,63.80
2019-05-28T16:37:44.494Z,64.30
2019-05-28T16:40:16.144Z,64.80
2019-05-28T16:42:45.811Z,65.20
2019-05-28T16:45:15.706Z,65.30
2019-05-28T16:47:45.209Z,65.70
2019-05-28T16:50:16.885Z,66.00
2019-05-28T16:52:46.620Z,66.10
2019-05-28T16:55:16.517Z,66.40
2019-05-28T16:57:45.995Z,67.00
2019-05-28T17:00:15.935Z,67.20
2019-05-28T17:02:45.409Z,67.40
2019-05-28T17:05:16.140Z,67.60
2019-05-28T17:07:45.597Z,67.80
2019-05-28T17:10:31.479Z,68.10
2019-05-28T17:12:46.260Z,68.30
2019-05-28T17:15:16.061Z,68.50
2019-05-28T17:17:45.542Z,68.50
2019-05-28T17:20:15.195Z,68.60
2019-05-28T17:22:44.685Z,68.80
2019-05-28T17:25:14.188Z,69.00
2019-05-28T17:27:43.678Z,69.20
2019-05-28T17:30:20.513Z,69.40
2019-05-28T17:32:44.890Z,69.60
2019-05-28T17:35:14.984Z,69.80
2019-05-28T17:37:44.436Z,70.10
2019-05-28T17:40:21.898Z,70.10
2019-05-28T17:42:46.271Z,70.10
2019-05-28T17:45:16.139Z,70.10
2019-05-28T17:47:45.612Z,70.30
2019-05-28T17:50:15.625Z,70.40
2019-05-28T17:52:45.145Z,70.40
2019-05-28T17:55:14.539Z,70.60
2019-05-28T17:57:44.013Z,70.60
2019-05-28T18:00:14.576Z,70.80
2019-05-28T18:02:44.013Z,71.00
2019-05-28T18:05:13.517Z,71.20
2019-05-28T18:07:43.146Z,71.50
2019-05-28T18:10:13.741Z,71.60
2019-05-28T18:12:43.181Z,71.70
2019-05-28T18:15:13.092Z,71.80
2019-05-28T18:17:42.555Z,71.90
2019-05-28T18:20:15.017Z,72.20
2019-05-28T18:22:43.592Z,72.20
2019-05-28T18:25:13.282Z,72.30
2019-05-28T18:27:42.865Z,72.30
2019-05-28T18:30:12.651Z,72.30
2019-05-28T18:32:42.161Z,72.40
2019-05-28T18:35:11.749Z,72.50
2019-05-28T18:37:41.245Z,72.60
2019-05-28T18:40:11.288Z,72.80
2019-05-28T18:42:40.780Z,72.90
2019-05-28T18:45:10.686Z,72.90
2019-05-28T18:47:40.759Z,73.00
2019-05-28T18:50:10.960Z,73.10
2019-05-28T18:52:40.454Z,73.30
2019-05-28T18:55:12.020Z,73.20
2019-05-28T18:57:41.505Z,73.30
2019-05-28T19:00:11.924Z,73.20
2019-05-28T19:02:41.365Z,73.30
2019-05-28T19:05:11.437Z,73.20
2019-05-28T19:07:40.905Z,73.30
2019-05-28T19:10:10.824Z,73.30
2019-05-28T19:12:40.276Z,73.40
2019-05-28T19:15:10.964Z,73.50
2019-05-28T19:17:40.405Z,73.50
2019-05-28T19:20:10.351Z,73.60
2019-05-28T19:22:39.833Z,73.60
2019-05-28T19:25:09.971Z,73.50
2019-05-28T19:27:39.481Z,73.50
2019-05-28T19:30:09.353Z,73.40
2019-05-28T19:32:38.900Z,73.30
2019-05-28T19:35:09.875Z,73.30
2019-05-28T19:37:39.898Z,73.20
2019-05-28T19:40:09.654Z,73.10
2019-05-28T19:42:39.117Z,72.90
2019-05-28T19:45:08.954Z,72.70
2019-05-28T19:47:38.446Z,72.80
2019-05-28T19:50:08.111Z,72.80
2019-05-28T19:52:37.641Z,72.90
2019-05-28T19:55:07.661Z,73.00
2019-05-28T19:57:37.124Z,73.10
2019-05-28T20:00:07.299Z,73.20
2019-05-28T20:02:36.808Z,73.90
2019-05-28T20:05:06.681Z,73.20
2019-05-28T20:07:36.196Z,73.30
2019-05-28T20:10:06.851Z,73.40
2019-05-28T20:12:36.380Z,73.50
2019-05-28T20:15:06.687Z,73.50
2019-05-28T20:17:36.136Z,73.50
2019-05-28T20:20:06.177Z,73.50
2019-05-28T20:22:35.679Z,73.30
2019-05-28T20:25:05.697Z,74.10
2019-05-28T20:27:35.197Z,73.30
2019-05-28T20:30:05.185Z,73.30
2019-05-28T20:32:34.681Z,73.20
2019-05-28T20:35:05.420Z,73.10
2019-05-28T20:37:35.063Z,73.10
2019-05-28T20:40:05.924Z,73.20
2019-05-28T20:42:35.930Z,73.10
2019-05-28T20:45:06.569Z,72.90
2019-05-28T20:47:36.122Z,72.90
2019-05-28T20:50:07.504Z,73.00
2019-05-28T20:52:37.275Z,73.00
2019-05-28T20:55:06.961Z,73.00
2019-05-28T20:57:36.476Z,72.80
2019-05-28T21:00:06.873Z,72.80
2019-05-28T21:02:36.325Z,72.80
2019-05-28T21:05:06.308Z,72.80
2019-05-28T21:07:35.789Z,72.60
2019-05-28T21:10:06.085Z,72.50
2019-05-28T21:12:43.706Z,72.50
2019-05-28T21:15:07.745Z,72.30
2019-05-28T21:17:37.233Z,72.20
2019-05-28T21:20:07.502Z,72.30
2019-05-28T21:22:37.115Z,72.20
2019-05-28T21:25:07.239Z,72.20
2019-05-28T21:27:36.708Z,72.20
2019-05-28T21:30:07.750Z,72.20
2019-05-28T21:32:37.321Z,72.20
2019-05-28T21:35:06.754Z,72.20
2019-05-28T21:37:36.221Z,72.30
2019-05-28T21:40:06.808Z,72.40
2019-05-28T21:42:36.280Z,72.40
2019-05-28T21:45:06.618Z,72.50
2019-05-28T21:47:36.104Z,72.50
2019-05-28T21:50:06.292Z,72.50
2019-05-28T21:52:35.766Z,72.50
2019-05-28T21:55:05.777Z,72.50
2019-05-28T21:57:35.169Z,72.60
2019-05-28T22:00:09.137Z,72.60
2019-05-28T22:02:38.632Z,72.50
2019-05-28T22:05:09.656Z,72.50
2019-05-28T22:07:39.224Z,72.60
2019-05-28T22:10:08.857Z,73.10
2019-05-28T22:12:39.736Z,72.60
2019-05-28T22:34:07.849Z,72.50
2019-05-28T22:36:37.249Z,72.50
2019-05-28T22:39:09.001Z,72.60
2019-05-28T22:41:40.621Z,72.60
2019-05-28T22:44:10.288Z,72.70
2019-05-28T22:46:39.772Z,72.80
2019-05-28T22:49:09.148Z,72.70
2019-05-28T22:51:38.613Z,72.80
2019-05-28T22:54:08.115Z,72.90
2019-05-28T22:56:37.574Z,73.10
2019-05-28T22:59:06.960Z,73.20
2019-05-28T23:01:36.362Z,73.10
2019-05-28T23:04:07.046Z,73.10
2019-05-28T23:06:36.564Z,73.20
2019-05-28T23:09:07.791Z,73.20
2019-05-28T23:11:37.357Z,73.20
2019-05-28T23:14:06.736Z,73.20
2019-05-28T23:16:36.204Z,73.20
2019-05-28T23:19:06.701Z,73.30
2019-05-28T23:21:36.265Z,73.90
2019-05-28T23:24:05.673Z,73.20
2019-05-28T23:26:35.063Z,73.10
2019-05-28T23:29:05.742Z,73.00
2019-05-28T23:31:35.228Z,73.00
2019-05-28T23:34:04.686Z,72.90
2019-05-28T23:36:34.141Z,72.90
2019-05-28T23:39:05.313Z,72.80
2019-05-28T23:41:34.805Z,72.80
2019-05-28T23:44:05.818Z,72.80
2019-05-28T23:46:35.367Z,72.90
2019-05-28T23:49:04.774Z,73.00
2019-05-28T23:51:34.192Z,72.90
2019-05-28T23:54:03.572Z,73.00
2019-05-28T23:56:32.948Z,73.70
2019-05-28T23:59:02.357Z,73.00
